createdAt,value
2017-05-30T00:01:30.424Z,91.20
2017-05-30T00:03:58.987Z,91.00
2017-05-30T00:06:27.285Z,90.80
2017-05-30T00:08:55.587Z,90.80
2017-05-30T00:11:24.339Z,90.70
2017-05-30T00:13:52.648Z,90.80
2017-05-30T00:16:20.941Z,90.90
2017-05-30T00:18:49.467Z,90.90
2017-05-30T00:21:17.779Z,91.20
2017-05-30T00:23:46.080Z,91.50
2017-05-30T00:26:14.622Z,91.50
2017-05-30T00:28:42.942Z,91.80
2017-05-30T00:31:11.244Z,91.80
2017-05-30T00:33:39.799Z,91.90
2017-05-30T00:36:08.109Z,92.30
2017-05-30T00:38:36.429Z,92.30
2017-05-30T00:41:05.070Z,92.40
2017-05-30T00:43:33.374Z,92.30
2017-05-30T00:46:01.673Z,92.20
2017-05-30T00:48:30.198Z,92.00
2017-05-30T00:50:58.500Z,92.00
2017-05-30T00:53:26.806Z,92.00
2017-05-30T00:55:55.508Z,91.90
2017-05-30T00:58:23.809Z,92.10
2017-05-30T01:00:52.103Z,92.10
2017-05-30T01:03:20.651Z,92.20
2017-05-30T01:05:49.005Z,92.00
2017-05-30T01:08:17.308Z,92.00
2017-05-30T01:10:45.850Z,92.00
2017-05-30T01:13:14.166Z,92.00
2017-05-30T01:15:42.481Z,92.00
2017-05-30T01:18:11.003Z,92.00
2017-05-30T01:20:39.292Z,92.20
2017-05-30T01:23:07.589Z,92.30
2017-05-30T01:25:36.117Z,91.90
2017-05-30T01:28:04.423Z,91.70
2017-05-30T01:30:32.730Z,91.40
2017-05-30T01:33:01.248Z,91.10
2017-05-30T01:35:29.555Z,91.30
2017-05-30T01:37:57.863Z,91.50
2017-05-30T01:40:26.388Z,91.40
2017-05-30T01:42:54.695Z,91.60
2017-05-30T01:45:23.011Z,91.70
2017-05-30T01:47:51.539Z,91.80
2017-05-30T01:50:19.827Z,91.80
2017-05-30T01:52:48.144Z,91.90
2017-05-30T01:55:16.688Z,92.00
2017-05-30T01:57:44.974Z,91.80
2017-05-30T02:00:13.298Z,91.60
2017-05-30T02:02:41.836Z,91.50
2017-05-30T02:05:10.156Z,91.60
2017-05-30T02:07:38.461Z,91.50
2017-05-30T02:10:06.979Z,91.60
2017-05-30T02:12:35.274Z,91.70
2017-05-30T02:15:03.575Z,91.50
2017-05-30T02:17:32.105Z,91.10
2017-05-30T02:20:00.465Z,90.90
2017-05-30T02:22:28.755Z,91.10
2017-05-30T02:24:57.333Z,91.20
2017-05-30T02:27:25.655Z,91.40
2017-05-30T02:29:53.958Z,91.50
2017-05-30T02:32:22.491Z,91.60
2017-05-30T02:34:50.784Z,91.60
2017-05-30T02:37:19.083Z,91.50
2017-05-30T02:39:47.603Z,91.50
2017-05-30T02:42:15.892Z,91.40
2017-05-30T02:44:44.209Z,91.50
2017-05-30T02:47:12.742Z,91.20
2017-05-30T02:49:41.053Z,91.10
2017-05-30T02:52:09.368Z,91.10
2017-05-30T02:54:37.872Z,91.10
2017-05-30T02:57:06.200Z,91.10
2017-05-30T02:59:34.506Z,91.30
2017-05-30T03:02:03.043Z,91.10
2017-05-30T03:04:31.342Z,91.30
2017-05-30T03:06:59.643Z,91.40
2017-05-30T03:09:28.189Z,91.40
2017-05-30T03:11:56.505Z,91.90
2017-05-30T03:14:24.822Z,92.20
2017-05-30T03:16:53.337Z,92.10
2017-05-30T03:19:21.659Z,92.30
2017-05-30T03:21:49.959Z,91.50
2017-05-30T03:24:18.490Z,91.30
2017-05-30T03:26:46.795Z,91.30
2017-05-30T03:29:15.127Z,91.40
2017-05-30T03:31:43.853Z,91.70
2017-05-30T03:34:12.163Z,91.80
2017-05-30T03:36:40.451Z,91.90
2017-05-30T03:39:09.051Z,91.80
2017-05-30T03:41:37.368Z,92.00
2017-05-30T03:44:05.675Z,91.70
2017-05-30T03:46:34.213Z,91.70
2017-05-30T03:49:02.515Z,91.90
2017-05-30T03:51:30.813Z,91.90
2017-05-30T03:53:59.413Z,91.90
2017-05-30T03:56:27.709Z,92.00
2017-05-30T03:58:56.001Z,91.80
2017-05-30T04:01:24.633Z,91.80
2017-05-30T04:03:52.935Z,91.70
2017-05-30T04:06:21.235Z,91.90
2017-05-30T04:08:49.756Z,91.70
2017-05-30T04:11:18.054Z,91.70
2017-05-30T04:13:46.369Z,91.60
2017-05-30T04:16:14.968Z,91.60
2017-05-30T04:18:43.255Z,91.50
2017-05-30T04:21:11.556Z,91.30
2017-05-30T04:23:40.093Z,91.40
2017-05-30T04:26:08.390Z,91.30
2017-05-30T04:28:36.704Z,91.10
2017-05-30T04:31:05.324Z,91.30
2017-05-30T04:33:33.625Z,90.90
2017-05-30T04:36:01.931Z,90.90
2017-05-30T04:38:30.476Z,90.50
2017-05-30T04:40:58.014Z,90.50
2017-05-30T04:43:26.314Z,89.90
2017-05-30T04:45:54.834Z,89.80
2017-05-30T04:48:23.131Z,88.10
2017-05-30T04:50:51.424Z,86.90
2017-05-30T04:53:19.937Z,86.90
2017-05-30T04:55:48.253Z,85.90
2017-05-30T04:58:16.543Z,85.10
2017-05-30T05:00:45.060Z,85.40
2017-05-30T05:03:13.344Z,84.80
2017-05-30T05:05:41.644Z,85.40
2017-05-30T05:08:10.236Z,86.00
2017-05-30T05:10:38.544Z,86.50
2017-05-30T05:13:06.834Z,86.30
2017-05-30T05:15:35.366Z,86.80
2017-05-30T05:18:03.665Z,86.70
2017-05-30T05:20:32.633Z,84.00
2017-05-30T05:23:01.144Z,83.60
2017-05-30T05:25:29.444Z,84.30
2017-05-30T05:27:57.748Z,82.10
2017-05-30T05:30:26.289Z,78.60
2017-05-30T05:32:54.614Z,75.90
2017-05-30T05:35:22.907Z,73.70
2017-05-30T05:37:51.484Z,72.10
2017-05-30T05:40:19.778Z,71.00
2017-05-30T05:42:48.064Z,69.70
2017-05-30T05:45:16.570Z,67.80
2017-05-30T05:47:44.870Z,67.30
2017-05-30T05:50:13.197Z,68.20
2017-05-30T05:52:41.720Z,70.40
2017-05-30T05:55:10.026Z,72.50
2017-05-30T05:57:38.335Z,70.10
2017-05-30T06:00:06.870Z,68.40
2017-05-30T06:02:35.169Z,66.20
2017-05-30T06:05:03.476Z,64.60
2017-05-30T06:07:32.178Z,63.40
2017-05-30T06:10:00.483Z,62.50
2017-05-30T06:12:28.798Z,60.60
2017-05-30T06:14:57.317Z,59.70
2017-05-30T06:17:25.621Z,59.40
2017-05-30T06:19:53.941Z,59.20
2017-05-30T06:22:22.540Z,55.40
2017-05-30T06:24:50.858Z,53.40
2017-05-30T06:27:18.387Z,53.30
2017-05-30T06:29:46.941Z,54.10
2017-05-30T06:32:15.246Z,52.10
2017-05-30T06:34:43.566Z,52.60
2017-05-30T06:37:12.090Z,52.50
2017-05-30T06:39:40.388Z,53.40
2017-05-30T06:42:08.702Z,53.30
2017-05-30T06:44:37.219Z,53.70
2017-05-30T06:47:05.542Z,53.20
2017-05-30T06:49:35.179Z,53.30
2017-05-30T06:52:05.219Z,53.10
2017-05-30T06:57:08.744Z,51.20
2017-05-30T06:59:37.114Z,50.60
2017-05-30T07:02:05.481Z,50.60
2017-05-30T07:04:34.213Z,49.50
2017-05-30T07:07:02.547Z,48.90
2017-05-30T07:09:30.852Z,47.70
2017-05-30T07:11:59.405Z,47.00
2017-05-30T07:14:27.701Z,47.50
2017-05-30T07:16:56.010Z,48.30
2017-05-30T07:19:24.531Z,51.30
2017-05-30T07:21:52.833Z,50.10
2017-05-30T07:24:21.132Z,49.60
2017-05-30T07:26:49.669Z,52.70
2017-05-30T07:29:20.812Z,50.90
2017-05-30T07:31:49.128Z,51.20
2017-05-30T07:34:17.663Z,51.90
2017-05-30T07:36:45.989Z,52.00
2017-05-30T07:39:14.288Z,53.00
2017-05-30T07:41:42.821Z,52.30
2017-05-30T07:44:11.127Z,54.40
2017-05-30T07:46:39.421Z,52.20
2017-05-30T07:49:08.574Z,53.20
2017-05-30T07:51:36.876Z,52.10
2017-05-30T07:54:05.160Z,51.50
2017-05-30T07:56:33.898Z,51.70
2017-05-30T07:59:02.210Z,53.20
2017-05-30T08:01:30.513Z,52.80
2017-05-30T08:03:59.192Z,53.80
2017-05-30T08:06:27.510Z,54.70
2017-05-30T08:08:55.812Z,54.60
2017-05-30T08:11:24.417Z,53.40
2017-05-30T08:13:52.707Z,54.70
2017-05-30T08:16:21.023Z,56.70
2017-05-30T08:18:49.647Z,56.30
2017-05-30T08:21:17.959Z,54.10
2017-05-30T08:23:46.263Z,56.30
2017-05-30T08:26:15.298Z,55.40
2017-05-30T08:28:43.609Z,57.20
2017-05-30T08:31:11.911Z,55.20
2017-05-30T08:33:40.444Z,56.70
2017-05-30T08:36:08.766Z,55.70
2017-05-30T08:38:37.085Z,57.20
2017-05-30T08:41:05.625Z,57.70
2017-05-30T08:43:33.920Z,56.40
2017-05-30T08:46:02.238Z,55.80
2017-05-30T08:48:30.866Z,56.10
2017-05-30T08:50:59.194Z,55.80
2017-05-30T08:53:27.515Z,56.20
2017-05-30T08:55:56.223Z,56.30
2017-05-30T08:58:24.537Z,58.70
2017-05-30T09:00:52.848Z,56.90
2017-05-30T09:03:21.377Z,57.50
2017-05-30T09:05:49.700Z,57.00
2017-05-30T09:08:18.031Z,56.90
2017-05-30T09:10:46.572Z,56.60
2017-05-30T09:13:14.872Z,56.60
2017-05-30T09:15:43.187Z,56.30
2017-05-30T09:18:11.719Z,57.70
2017-05-30T09:20:40.537Z,58.50
2017-05-30T09:23:09.286Z,59.40
2017-05-30T09:25:37.836Z,61.20
2017-05-30T09:28:06.145Z,61.50
2017-05-30T09:30:34.444Z,60.40
2017-05-30T09:33:03.091Z,59.50
2017-05-30T09:35:31.397Z,59.60
2017-05-30T09:37:59.704Z,58.40
2017-05-30T09:40:28.233Z,58.00
2017-05-30T09:42:56.556Z,54.60
2017-05-30T09:45:24.848Z,54.50
2017-05-30T09:47:53.450Z,52.10
2017-05-30T09:50:21.762Z,51.50
2017-05-30T09:52:49.541Z,51.50
2017-05-30T09:55:17.889Z,51.80
2017-05-30T09:57:46.212Z,55.10
2017-05-30T10:00:14.767Z,51.00
2017-05-30T10:02:43.074Z,51.90
2017-05-30T10:05:11.394Z,54.00
2017-05-30T10:07:40.157Z,50.90
2017-05-30T10:10:08.448Z,51.00
2017-05-30T10:12:36.785Z,50.60
2017-05-30T10:15:05.311Z,51.20
2017-05-30T10:17:33.612Z,51.10
2017-05-30T10:20:01.937Z,51.90
2017-05-30T10:22:30.463Z,48.10
2017-05-30T10:24:58.769Z,50.00
2017-05-30T10:27:27.076Z,50.70
2017-05-30T10:29:55.607Z,51.80
2017-05-30T10:32:23.906Z,52.40
2017-05-30T10:34:52.233Z,53.60
2017-05-30T10:37:20.962Z,54.80
2017-05-30T10:39:49.288Z,55.60
2017-05-30T10:42:17.863Z,55.30
2017-05-30T10:44:46.487Z,56.80
2017-05-30T10:47:14.832Z,57.20
2017-05-30T10:49:43.168Z,57.40
2017-05-30T10:52:10.952Z,57.40
2017-05-30T10:54:39.325Z,58.40
2017-05-30T10:57:07.699Z,58.60
2017-05-30T10:59:36.312Z,57.80
2017-05-30T11:02:04.619Z,56.50
2017-05-30T11:04:32.935Z,57.30
2017-05-30T11:07:01.670Z,56.10
2017-05-30T11:09:29.975Z,57.70
2017-05-30T11:11:58.348Z,57.30
2017-05-30T11:14:27.243Z,57.00
2017-05-30T11:16:55.590Z,57.10
2017-05-30T11:19:23.889Z,57.20
2017-05-30T11:21:52.538Z,56.60
2017-05-30T11:24:20.851Z,56.50
2017-05-30T11:26:49.143Z,56.80
2017-05-30T11:29:17.750Z,57.50
2017-05-30T11:31:46.095Z,60.40
2017-05-30T11:34:14.383Z,56.00
2017-05-30T11:36:42.229Z,55.80
2017-05-30T11:39:10.556Z,51.90
2017-05-30T11:41:38.874Z,50.00
2017-05-30T11:44:06.662Z,50.00
2017-05-30T11:46:34.961Z,48.50
2017-05-30T11:49:03.253Z,48.20
2017-05-30T11:51:31.852Z,50.00
2017-05-30T11:54:00.163Z,48.30
2017-05-30T11:56:28.484Z,47.20
2017-05-30T11:58:57.016Z,48.70
2017-05-30T12:01:24.556Z,48.70
2017-05-30T12:03:52.854Z,46.70
2017-05-30T12:06:21.506Z,47.20
2017-05-30T12:08:49.804Z,47.50
2017-05-30T12:11:18.133Z,47.10
2017-05-30T12:13:46.735Z,48.20
2017-05-30T12:16:15.058Z,48.20
2017-05-30T12:18:43.346Z,47.20
2017-05-30T12:21:11.972Z,48.70
2017-05-30T12:23:40.275Z,47.00
2017-05-30T12:26:08.700Z,46.30
2017-05-30T12:28:37.214Z,47.50
2017-05-30T12:31:05.529Z,45.70
2017-05-30T12:33:33.834Z,47.00
2017-05-30T12:36:02.391Z,47.70
2017-05-30T12:38:30.686Z,45.00
2017-05-30T12:40:58.991Z,44.60
2017-05-30T12:43:27.581Z,42.60
2017-05-30T12:45:55.865Z,42.00
2017-05-30T12:48:24.179Z,42.20
2017-05-30T12:50:53.021Z,42.40
2017-05-30T12:53:21.325Z,41.70
2017-05-30T12:55:49.640Z,40.80
2017-05-30T12:58:17.401Z,40.80
2017-05-30T13:00:45.697Z,40.90
2017-05-30T13:03:14.004Z,40.50
2017-05-30T13:05:42.597Z,41.60
2017-05-30T13:08:10.958Z,43.40
2017-05-30T13:10:39.276Z,44.20
2017-05-30T13:13:07.097Z,44.10
2017-05-30T13:15:35.415Z,40.00
2017-05-30T13:18:04.010Z,39.10
2017-05-30T13:20:32.410Z,36.60
2017-05-30T13:23:00.713Z,39.30
2017-05-30T13:25:29.237Z,39.60
2017-05-30T13:27:57.572Z,38.30
2017-05-30T13:30:25.934Z,35.80
2017-05-30T13:32:54.570Z,37.30
2017-05-30T13:35:22.890Z,38.80
2017-05-30T13:37:51.190Z,36.20
2017-05-30T13:40:19.807Z,37.70
2017-05-30T13:42:48.103Z,37.90
2017-05-30T13:45:16.407Z,35.50
2017-05-30T13:47:44.937Z,35.30
2017-05-30T13:50:13.247Z,33.40
2017-05-30T13:52:41.559Z,32.50
2017-05-30T13:55:10.343Z,35.20
2017-05-30T13:57:38.634Z,39.40
2017-05-30T14:00:06.960Z,41.30
2017-05-30T14:02:35.585Z,42.70
2017-05-30T14:05:03.893Z,43.60
2017-05-30T14:07:32.205Z,41.10
2017-05-30T14:10:01.239Z,40.90
2017-05-30T14:12:29.551Z,42.30
2017-05-30T14:14:57.870Z,40.50
2017-05-30T14:17:26.477Z,40.00
2017-05-30T14:19:54.785Z,41.10
2017-05-30T14:22:23.089Z,38.60
2017-05-30T14:24:51.699Z,41.50
2017-05-30T14:27:20.008Z,43.00
2017-05-30T14:29:48.312Z,44.50
2017-05-30T14:32:16.940Z,43.90
2017-05-30T14:34:45.266Z,44.60
2017-05-30T14:37:13.601Z,42.50
2017-05-30T14:39:42.186Z,41.20
2017-05-30T14:42:10.501Z,38.90
2017-05-30T14:44:38.830Z,38.70
2017-05-30T14:47:07.425Z,37.50
2017-05-30T14:49:35.740Z,37.60
2017-05-30T14:52:04.039Z,36.20
2017-05-30T14:54:32.658Z,35.60
2017-05-30T14:57:00.972Z,37.30
2017-05-30T14:59:29.288Z,37.30
2017-05-30T15:01:57.893Z,35.70
2017-05-30T15:04:26.225Z,34.50
2017-05-30T15:06:54.540Z,34.20
2017-05-30T15:09:23.168Z,35.00
2017-05-30T15:11:51.485Z,37.80
2017-05-30T15:14:19.786Z,37.50
2017-05-30T15:16:48.595Z,36.50
2017-05-30T15:19:16.943Z,36.40
2017-05-30T15:21:45.246Z,39.20
2017-05-30T15:24:13.826Z,41.60
2017-05-30T15:26:41.361Z,41.60
2017-05-30T15:29:09.667Z,45.20
2017-05-30T15:31:38.263Z,44.60
2017-05-30T15:34:06.578Z,45.10
2017-05-30T15:36:35.201Z,45.00
2017-05-30T15:39:03.782Z,45.50
2017-05-30T15:41:31.306Z,45.50
2017-05-30T15:43:59.619Z,42.80
2017-05-30T15:46:28.323Z,41.00
2017-05-30T15:48:56.626Z,42.00
2017-05-30T15:51:24.927Z,43.00
2017-05-30T15:53:53.543Z,44.30
2017-05-30T15:56:21.850Z,45.10
2017-05-30T15:58:50.160Z,45.20
2017-05-30T16:01:18.705Z,46.40
2017-05-30T16:03:47.006Z,47.10
2017-05-30T16:06:15.318Z,47.70
2017-05-30T16:08:43.903Z,47.80
2017-05-30T16:11:12.234Z,48.40
2017-05-30T16:13:40.980Z,49.00
2017-05-30T16:16:09.319Z,50.10
2017-05-30T16:18:37.642Z,50.50
2017-05-30T16:21:06.189Z,50.30
2017-05-30T16:23:34.536Z,49.70
2017-05-30T16:26:02.858Z,48.90
2017-05-30T16:28:33.585Z,48.70
2017-05-30T16:31:01.923Z,49.60
2017-05-30T16:33:30.224Z,50.60
2017-05-30T16:35:58.811Z,52.00
2017-05-30T16:38:27.106Z,53.30
2017-05-30T16:40:55.415Z,54.40
2017-05-30T16:43:24.050Z,56.00
2017-05-30T16:45:51.598Z,56.00
2017-05-30T16:48:19.897Z,55.70
2017-05-30T16:50:48.640Z,56.00
2017-05-30T16:53:16.986Z,55.90
2017-05-30T16:55:45.291Z,53.40
2017-05-30T16:58:14.078Z,52.30
2017-05-30T17:00:42.389Z,51.80
2017-05-30T17:03:10.708Z,50.60
2017-05-30T17:05:39.310Z,49.30
2017-05-30T17:08:07.625Z,49.90
2017-05-30T17:10:35.953Z,52.10
2017-05-30T17:13:05.407Z,52.10
2017-05-30T17:15:33.702Z,53.80
2017-05-30T17:18:02.017Z,55.30
2017-05-30T17:20:30.341Z,56.00
2017-05-30T17:22:58.663Z,57.00
2017-05-30T17:25:27.016Z,56.50
2017-05-30T17:27:55.323Z,57.00
2017-05-30T17:30:23.643Z,57.80
2017-05-30T17:32:51.217Z,57.80
2017-05-30T17:35:19.540Z,58.00
2017-05-30T17:37:48.144Z,58.90
2017-05-30T17:40:16.469Z,58.10
2017-05-30T17:42:44.029Z,58.10
2017-05-30T17:45:12.634Z,57.40
2017-05-30T17:47:40.975Z,57.20
2017-05-30T17:50:09.299Z,57.00
2017-05-30T17:52:38.091Z,57.30
2017-05-30T17:55:06.406Z,58.60
2017-05-30T17:57:34.720Z,59.30
2017-05-30T18:00:03.054Z,59.00
2017-05-30T18:02:31.445Z,59.10
2017-05-30T18:04:59.871Z,59.00
2017-05-30T18:07:27.728Z,59.00
2017-05-30T18:09:56.077Z,59.70
2017-05-30T18:12:24.398Z,60.00
2017-05-30T18:14:52.714Z,60.80
2017-05-30T18:17:20.255Z,60.70
2017-05-30T18:19:48.906Z,62.70
2017-05-30T18:22:17.230Z,63.30
2017-05-30T18:24:44.829Z,63.30
2017-05-30T18:27:13.169Z,63.90
2017-05-30T18:29:41.496Z,64.40
2017-05-30T18:32:09.819Z,65.00
2017-05-30T18:34:38.605Z,65.60
2017-05-30T18:37:07.035Z,65.50
2017-05-30T18:39:35.392Z,65.40
2017-05-30T18:42:04.412Z,66.10
2017-05-30T18:44:32.763Z,66.40
2017-05-30T18:47:04.032Z,66.80
2017-05-30T18:49:32.573Z,66.70
2017-05-30T18:52:00.986Z,68.00
2017-05-30T18:54:29.817Z,71.40
2017-05-30T18:56:58.264Z,73.60
2017-05-30T18:59:26.710Z,74.70
2017-05-30T19:01:55.051Z,75.70
2017-05-30T19:04:23.409Z,77.30
2017-05-30T19:06:52.043Z,77.90
2017-05-30T19:09:20.388Z,78.30
2017-05-30T19:11:48.961Z,78.70
2017-05-30T19:14:17.299Z,78.90
2017-05-30T19:16:45.659Z,78.70
2017-05-30T19:19:14.035Z,78.80
2017-05-30T19:21:43.022Z,79.00
2017-05-30T19:24:12.468Z,79.10
2017-05-30T19:26:41.055Z,79.50
2017-05-30T19:29:10.734Z,79.50
2017-05-30T19:31:39.061Z,79.90
2017-05-30T19:34:06.613Z,79.90
2017-05-30T19:36:34.948Z,81.50
2017-05-30T19:39:03.251Z,81.00
2017-05-30T19:41:31.583Z,81.50
2017-05-30T19:43:59.886Z,81.90
2017-05-30T19:46:27.660Z,81.80
2017-05-30T19:48:55.971Z,83.20
2017-05-30T19:51:24.294Z,83.80
2017-05-30T19:53:52.945Z,84.20
2017-05-30T19:56:21.258Z,84.50
2017-05-30T19:58:49.572Z,85.10
2017-05-30T20:01:17.141Z,85.10
2017-05-30T20:03:45.481Z,85.90
2017-05-30T20:06:14.105Z,86.00
2017-05-30T20:08:42.409Z,86.00
2017-05-30T20:11:10.745Z,86.10
2017-05-30T20:13:39.115Z,86.70
2017-05-30T20:16:07.479Z,86.90
2017-05-30T20:18:36.568Z,87.20
2017-05-30T20:21:04.896Z,87.50
2017-05-30T20:23:33.209Z,87.50
2017-05-30T20:26:01.582Z,87.30
2017-05-30T20:28:29.893Z,86.50
2017-05-30T20:30:58.241Z,86.20
2017-05-30T20:33:26.589Z,85.80
2017-05-30T20:35:54.948Z,85.50
2017-05-30T20:38:23.304Z,84.90
2017-05-30T20:40:51.621Z,84.70
2017-05-30T20:43:19.983Z,84.50
2017-05-30T20:45:48.354Z,84.90
2017-05-30T20:48:16.744Z,83.70
2017-05-30T20:50:45.335Z,83.90
2017-05-30T20:53:14.030Z,83.50
2017-05-30T20:55:42.829Z,83.30
2017-05-30T20:58:12.146Z,82.60
2017-05-30T21:00:41.538Z,82.20
2017-05-30T21:03:09.942Z,81.40
2017-05-30T21:05:38.702Z,80.80
2017-05-30T21:08:07.146Z,80.40
2017-05-30T21:10:35.582Z,79.50
2017-05-30T21:13:04.475Z,79.90
2017-05-30T21:15:32.773Z,79.00
2017-05-30T21:18:01.113Z,77.90
2017-05-30T21:20:29.640Z,77.70
2017-05-30T21:22:57.997Z,77.60
2017-05-30T21:25:26.302Z,78.00
2017-05-30T21:27:54.641Z,78.20
2017-05-30T21:30:22.956Z,77.60
2017-05-30T21:32:51.326Z,77.90
2017-05-30T21:35:19.627Z,77.70
2017-05-30T21:37:48.157Z,77.90
2017-05-30T21:40:16.487Z,77.90
2017-05-30T21:42:44.810Z,79.20
2017-05-30T21:45:13.147Z,78.80
2017-05-30T21:47:41.456Z,78.80
2017-05-30T21:50:10.073Z,79.40
2017-05-30T21:52:38.373Z,80.10
2017-05-30T21:55:06.657Z,81.00
2017-05-30T21:57:34.995Z,81.00
2017-05-30T22:00:03.308Z,80.90
2017-05-30T22:02:31.665Z,80.50
2017-05-30T22:04:59.958Z,80.60
2017-05-30T22:07:28.265Z,79.80
2017-05-30T22:09:57.485Z,79.50
2017-05-30T22:12:25.065Z,79.50
2017-05-30T22:14:53.354Z,77.80
2017-05-30T22:17:21.688Z,77.60
2017-05-30T22:19:50.045Z,78.30
2017-05-30T22:22:18.342Z,76.30
2017-05-30T22:24:46.651Z,76.00
2017-05-30T22:27:14.987Z,75.70
2017-05-30T22:29:43.317Z,75.50
2017-05-30T22:32:11.619Z,75.30
2017-05-30T22:34:39.930Z,74.40
2017-05-30T22:37:08.233Z,74.20
2017-05-30T22:39:36.543Z,74.80
2017-05-30T22:42:04.851Z,74.70
2017-05-30T22:44:33.164Z,75.10
2017-05-30T22:47:01.491Z,74.90
2017-05-30T22:49:29.783Z,75.60
2017-05-30T22:51:58.109Z,76.00
2017-05-30T22:54:26.424Z,75.70
2017-05-30T22:56:54.777Z,75.20
2017-05-30T22:59:23.076Z,75.00
2017-05-30T23:01:51.743Z,74.90
2017-05-30T23:04:20.054Z,74.60
2017-05-30T23:06:48.351Z,74.80
2017-05-30T23:09:16.669Z,74.60
2017-05-30T23:11:44.966Z,74.20
2017-05-30T23:14:13.255Z,74.60
2017-05-30T23:16:41.786Z,75.10
2017-05-30T23:19:10.085Z,75.40
2017-05-30T23:21:38.382Z,76.20
2017-05-30T23:24:06.703Z,76.00
2017-05-30T23:26:34.995Z,76.40
2017-05-30T23:29:03.303Z,76.00
2017-05-30T23:31:31.586Z,76.00
2017-05-30T23:33:59.887Z,75.00
2017-05-30T23:36:28.181Z,75.60
2017-05-30T23:38:56.496Z,74.20
2017-05-30T23:41:24.796Z,74.30
2017-05-30T23:43:53.118Z,75.00
2017-05-30T23:46:21.405Z,74.60
2017-05-30T23:48:49.736Z,75.00
2017-05-30T23:51:18.060Z,74.80
2017-05-30T23:53:45.594Z,74.60
2017-05-30T23:56:13.917Z,75.90
2017-05-30T23:58:42.228Z,75.70
